createdAt,value
2023-04-30T00:01:11.119Z,100.00
2023-04-30T00:03:39.780Z,100.00
2023-04-30T00:06:06.049Z,100.00
2023-04-30T00:08:32.262Z,100.00
2023-04-30T00:10:59.848Z,100.00
2023-04-30T00:13:25.988Z,100.00
2023-04-30T00:15:52.209Z,100.00
2023-04-30T00:18:18.437Z,100.00
2023-04-30T00:20:46.107Z,100.00
2023-04-30T00:23:12.238Z,100.00
2023-04-30T00:25:38.437Z,100.00
2023-04-30T00:28:05.833Z,100.00
2023-04-30T00:30:32.007Z,100.00
2023-04-30T00:32:58.186Z,100.00
2023-04-30T00:35:24.400Z,100.00
2023-04-30T00:37:50.571Z,100.00
2023-04-30T00:40:21.338Z,100.00
2023-04-30T00:42:47.541Z,100.00
2023-04-30T00:45:13.657Z,100.00
2023-04-30T00:47:39.854Z,100.00
2023-04-30T00:50:06.014Z,100.00
2023-04-30T00:52:39.017Z,100.00
2023-04-30T00:55:05.150Z,100.00
2023-04-30T00:57:31.348Z,100.00
2023-04-30T00:59:57.580Z,100.00
2023-04-30T01:02:24.936Z,100.00
2023-04-30T01:04:57.837Z,100.00
2023-04-30T01:07:24.000Z,100.00
2023-04-30T01:09:50.207Z,100.00
2023-04-30T01:12:16.356Z,100.00
2023-04-30T01:14:42.506Z,100.00
2023-04-30T01:17:10.932Z,100.00
2023-04-30T01:19:37.074Z,100.00
2023-04-30T01:22:03.245Z,100.00
2023-04-30T01:24:32.157Z,100.00
2023-04-30T01:27:01.113Z,100.00
2023-04-30T01:29:27.265Z,100.00
2023-04-30T01:31:53.449Z,100.00
2023-04-30T01:34:19.620Z,100.00
2023-04-30T01:36:45.813Z,100.00
2023-04-30T01:39:13.136Z,100.00
2023-04-30T01:41:39.331Z,100.00
2023-04-30T01:44:05.464Z,100.00
2023-04-30T01:46:35.458Z,100.00
2023-04-30T01:49:01.646Z,100.00
2023-04-30T01:51:27.798Z,100.00
2023-04-30T01:53:53.986Z,100.00
2023-04-30T01:56:20.136Z,100.00
2023-04-30T01:58:47.490Z,100.00
2023-04-30T02:01:13.725Z,100.00
2023-04-30T02:03:40.021Z,100.00
2023-04-30T02:06:06.271Z,100.00
2023-04-30T02:08:34.473Z,100.00
2023-04-30T02:11:00.602Z,100.00
2023-04-30T02:13:26.758Z,100.00
2023-04-30T02:16:05.723Z,100.00
2023-04-30T02:18:31.981Z,100.00
2023-04-30T02:20:58.137Z,100.00
2023-04-30T02:23:24.311Z,100.00
2023-04-30T02:25:50.470Z,100.00
2023-04-30T02:28:16.618Z,100.00
2023-04-30T02:30:42.849Z,100.00
2023-04-30T02:33:09.127Z,100.00
2023-04-30T02:35:35.344Z,100.00
2023-04-30T02:38:01.499Z,100.00
2023-04-30T02:40:28.859Z,100.00
2023-04-30T02:42:54.980Z,100.00
2023-04-30T02:45:21.127Z,100.00
2023-04-30T02:47:47.311Z,100.00
2023-04-30T02:50:13.443Z,100.00
2023-04-30T02:52:40.794Z,100.00
2023-04-30T02:55:06.954Z,100.00
2023-04-30T02:57:33.161Z,100.00
2023-04-30T03:00:01.592Z,100.00
2023-04-30T03:02:27.814Z,100.00
2023-04-30T03:04:54.005Z,100.00
2023-04-30T03:07:21.345Z,100.00
2023-04-30T03:09:47.555Z,100.00
2023-04-30T03:12:13.704Z,100.00
2023-04-30T03:14:39.826Z,100.00
2023-04-30T03:17:09.436Z,100.00
2023-04-30T03:19:35.632Z,100.00
2023-04-30T03:22:01.809Z,100.00
2023-04-30T03:24:27.953Z,100.00
2023-04-30T03:26:54.104Z,100.00
2023-04-30T03:29:24.479Z,100.00
2023-04-30T03:31:50.676Z,100.00
2023-04-30T03:34:16.906Z,100.00
2023-04-30T03:36:47.574Z,100.00
2023-04-30T03:39:13.690Z,100.00
2023-04-30T03:41:39.898Z,100.00
2023-04-30T03:44:06.028Z,100.00
2023-04-30T03:46:32.278Z,100.00
2023-04-30T03:48:58.488Z,100.00
2023-04-30T03:51:24.636Z,100.00
2023-04-30T03:53:50.818Z,100.00
2023-04-30T03:56:17.009Z,100.00
2023-04-30T03:58:43.193Z,100.00
2023-04-30T04:01:09.426Z,100.00
2023-04-30T04:03:35.666Z,100.00
2023-04-30T04:06:01.883Z,100.00
2023-04-30T04:08:29.252Z,100.00
2023-04-30T04:10:55.477Z,100.00
2023-04-30T04:13:21.751Z,100.00
2023-04-30T04:15:47.978Z,100.00
2023-04-30T04:18:14.170Z,100.00
2023-04-30T04:20:40.329Z,100.00
2023-04-30T04:23:07.678Z,100.00
2023-04-30T04:25:33.838Z,100.00
2023-04-30T04:27:59.978Z,100.00
2023-04-30T04:30:26.128Z,100.00
2023-04-30T04:32:54.407Z,100.00
2023-04-30T04:35:23.274Z,100.00
2023-04-30T04:37:49.493Z,100.00
2023-04-30T04:40:15.652Z,100.00
2023-04-30T04:42:41.809Z,100.00
2023-04-30T04:45:07.999Z,100.00
2023-04-30T04:47:34.183Z,100.00
2023-04-30T04:50:00.427Z,100.00
2023-04-30T04:52:26.632Z,100.00
2023-04-30T04:54:52.782Z,100.00
2023-04-30T04:57:18.914Z,100.00
2023-04-30T04:59:45.187Z,100.00
2023-04-30T05:02:11.427Z,100.00
2023-04-30T05:04:37.585Z,100.00
2023-04-30T05:07:03.765Z,100.00
2023-04-30T05:09:29.955Z,100.00
2023-04-30T05:11:58.212Z,100.00
2023-04-30T05:14:24.380Z,100.00
2023-04-30T05:16:50.560Z,100.00
2023-04-30T05:19:16.754Z,100.00
2023-04-30T05:21:42.918Z,100.00
2023-04-30T05:24:09.080Z,100.00
2023-04-30T05:26:35.266Z,100.00
2023-04-30T05:29:01.402Z,100.00
2023-04-30T05:31:27.634Z,100.00
2023-04-30T05:33:53.774Z,100.00
2023-04-30T05:36:19.965Z,100.00
2023-04-30T05:38:48.453Z,100.00
2023-04-30T05:41:14.585Z,100.00
2023-04-30T05:43:40.722Z,100.00
2023-04-30T05:46:06.964Z,100.00
2023-04-30T05:48:33.187Z,100.00
2023-04-30T05:50:59.412Z,100.00
2023-04-30T05:53:25.556Z,100.00
2023-04-30T05:55:51.766Z,100.00
2023-04-30T05:58:17.896Z,100.00
2023-04-30T06:00:44.033Z,100.00
2023-04-30T06:03:10.253Z,100.00
2023-04-30T06:05:36.490Z,100.00
2023-04-30T06:08:02.809Z,100.00
2023-04-30T06:10:29.037Z,100.00
2023-04-30T06:12:55.247Z,100.00
2023-04-30T06:15:21.432Z,100.00
2023-04-30T06:17:47.626Z,100.00
2023-04-30T06:20:13.824Z,100.00
2023-04-30T06:22:40.011Z,100.00
2023-04-30T06:25:06.235Z,100.00
2023-04-30T06:27:32.613Z,100.00
2023-04-30T06:29:58.822Z,100.00
2023-04-30T06:32:24.977Z,100.00
2023-04-30T06:34:51.139Z,100.00
2023-04-30T06:37:17.281Z,100.00
2023-04-30T06:39:43.679Z,100.00
2023-04-30T06:42:09.838Z,100.00
2023-04-30T06:44:35.994Z,100.00
2023-04-30T06:47:02.159Z,100.00
2023-04-30T06:49:37.442Z,100.00
2023-04-30T06:52:03.612Z,100.00
2023-04-30T06:54:29.800Z,100.00
2023-04-30T06:57:03.296Z,100.00
2023-04-30T06:59:29.519Z,100.00
2023-04-30T07:01:55.795Z,100.00
2023-04-30T07:04:22.043Z,100.00
2023-04-30T07:06:48.162Z,100.00
2023-04-30T07:09:14.364Z,100.00
2023-04-30T07:11:40.508Z,100.00
2023-04-30T07:14:06.724Z,100.00
2023-04-30T07:16:32.996Z,100.00
2023-04-30T07:18:59.308Z,100.00
2023-04-30T07:21:34.444Z,100.00
2023-04-30T07:24:00.654Z,100.00
2023-04-30T07:26:26.862Z,100.00
2023-04-30T07:28:59.337Z,96.57
2023-04-30T07:31:35.913Z,100.00
2023-04-30T07:34:02.135Z,97.37
2023-04-30T07:36:28.271Z,99.65
2023-04-30T07:38:54.446Z,89.45
2023-04-30T07:41:20.632Z,91.82
2023-04-30T07:43:46.756Z,86.42
2023-04-30T07:46:13.016Z,83.84
2023-04-30T07:48:39.183Z,75.85
2023-04-30T07:51:05.356Z,76.23
2023-04-30T07:53:31.523Z,74.38
2023-04-30T07:55:57.674Z,69.08
2023-04-30T07:58:23.843Z,71.25
2023-04-30T08:00:50.028Z,69.37
2023-04-30T08:03:16.227Z,73.75
2023-04-30T08:05:42.487Z,73.82
2023-04-30T08:08:08.725Z,75.34
2023-04-30T08:10:34.903Z,65.33
2023-04-30T08:13:01.029Z,62.40
2023-04-30T08:15:28.804Z,61.24
2023-04-30T08:17:58.621Z,63.69
2023-04-30T08:20:24.860Z,65.22
2023-04-30T08:22:51.050Z,61.62
2023-04-30T08:25:17.219Z,61.65
2023-04-30T08:27:43.372Z,59.16
2023-04-30T08:30:09.520Z,58.48
2023-04-30T08:32:35.733Z,61.38
2023-04-30T08:35:01.934Z,59.39
2023-04-30T08:37:28.082Z,63.95
2023-04-30T08:42:38.171Z,72.04
2023-04-30T08:45:04.320Z,76.10
2023-04-30T08:47:30.564Z,76.49
2023-04-30T08:49:59.570Z,71.79
2023-04-30T08:52:25.744Z,69.92
2023-04-30T08:54:51.940Z,70.95
2023-04-30T08:57:18.167Z,69.19
2023-04-30T08:59:44.403Z,67.62
2023-04-30T09:02:10.751Z,65.33
2023-04-30T09:04:38.166Z,64.12
2023-04-30T09:07:05.200Z,60.65
2023-04-30T09:09:32.067Z,62.97
2023-04-30T09:12:05.734Z,65.03
2023-04-30T09:14:31.909Z,62.21
2023-04-30T09:16:58.088Z,61.32
2023-04-30T09:19:26.318Z,57.75
2023-04-30T09:21:52.453Z,60.02
2023-04-30T09:24:18.832Z,55.78
2023-04-30T09:26:45.091Z,56.28
2023-04-30T09:29:11.228Z,58.06
2023-04-30T09:31:37.433Z,57.41
2023-04-30T09:34:03.573Z,58.66
2023-04-30T09:36:29.705Z,60.42
2023-04-30T09:38:55.887Z,59.02
2023-04-30T09:41:22.002Z,57.76
2023-04-30T09:43:48.133Z,59.91
2023-04-30T09:46:14.298Z,60.36
2023-04-30T09:48:40.527Z,56.41
2023-04-30T09:51:06.705Z,53.49
2023-04-30T09:53:35.869Z,54.45
2023-04-30T09:56:02.096Z,56.08
2023-04-30T09:58:28.281Z,52.71
2023-04-30T10:00:54.495Z,57.36
2023-04-30T10:03:20.664Z,56.84
2023-04-30T10:05:46.835Z,58.56
2023-04-30T10:08:12.995Z,57.17
2023-04-30T10:10:39.167Z,57.43
2023-04-30T10:13:07.587Z,58.95
2023-04-30T10:15:33.876Z,57.15
2023-04-30T10:18:00.130Z,57.33
2023-04-30T10:20:26.383Z,58.26
2023-04-30T10:22:52.561Z,56.57
2023-04-30T10:25:18.775Z,59.94
2023-04-30T10:27:44.913Z,60.75
2023-04-30T10:30:11.085Z,56.66
2023-04-30T10:32:37.215Z,59.13
2023-04-30T10:35:03.423Z,59.63
2023-04-30T10:37:29.630Z,58.90
2023-04-30T10:39:55.976Z,57.84
2023-04-30T10:42:22.339Z,59.03
2023-04-30T10:44:48.566Z,57.32
2023-04-30T10:47:14.852Z,59.58
2023-04-30T10:49:41.064Z,59.02
2023-04-30T10:52:07.360Z,57.55
2023-04-30T10:54:33.737Z,57.28
2023-04-30T10:56:59.935Z,59.09
2023-04-30T10:59:26.131Z,57.09
2023-04-30T11:01:52.408Z,57.98
2023-04-30T11:04:18.691Z,58.96
2023-04-30T11:06:45.176Z,57.57
2023-04-30T11:09:11.418Z,59.92
2023-04-30T11:11:39.655Z,60.55
2023-04-30T11:14:05.800Z,60.10
2023-04-30T11:16:32.131Z,61.55
2023-04-30T11:18:58.436Z,60.75
2023-04-30T11:21:24.609Z,64.35
2023-04-30T11:23:50.801Z,63.00
2023-04-30T11:26:16.967Z,59.90
2023-04-30T11:28:43.128Z,58.64
2023-04-30T11:31:09.259Z,61.35
2023-04-30T11:33:41.531Z,59.62
2023-04-30T11:36:07.668Z,57.60
2023-04-30T11:38:33.880Z,61.11
2023-04-30T11:41:00.117Z,63.68
2023-04-30T11:43:26.310Z,58.74
2023-04-30T11:45:52.485Z,58.45
2023-04-30T11:48:18.653Z,57.63
2023-04-30T11:50:44.888Z,57.71
2023-04-30T11:53:11.010Z,59.17
2023-04-30T11:55:37.156Z,57.64
2023-04-30T11:58:03.266Z,61.23
2023-04-30T12:00:30.702Z,58.55
2023-04-30T12:02:57.072Z,60.15
2023-04-30T12:05:23.394Z,57.79
2023-04-30T12:07:49.573Z,58.93
2023-04-30T12:10:15.729Z,58.53
2023-04-30T12:12:41.854Z,57.43
2023-04-30T12:15:07.987Z,57.62
2023-04-30T12:17:34.229Z,57.18
2023-04-30T12:20:00.471Z,55.99
2023-04-30T12:22:26.664Z,58.19
2023-04-30T12:24:52.805Z,54.57
2023-04-30T12:27:18.937Z,53.53
2023-04-30T12:29:45.107Z,51.99
2023-04-30T12:32:11.279Z,52.48
2023-04-30T12:34:37.444Z,54.68
2023-04-30T12:37:03.643Z,59.21
2023-04-30T12:39:29.853Z,58.16
2023-04-30T12:41:56.067Z,54.55
2023-04-30T12:44:22.223Z,54.13
2023-04-30T12:46:48.452Z,51.08
2023-04-30T12:49:14.655Z,50.11
2023-04-30T12:51:40.787Z,49.18
2023-04-30T12:54:07.017Z,48.81
2023-04-30T12:56:33.248Z,52.83
2023-04-30T12:58:59.405Z,53.07
2023-04-30T13:01:25.698Z,52.62
2023-04-30T13:03:52.207Z,52.14
2023-04-30T13:06:18.922Z,48.95
2023-04-30T13:08:58.083Z,52.55
2023-04-30T13:11:25.207Z,49.51
2023-04-30T13:13:51.371Z,52.28
2023-04-30T13:16:17.590Z,48.76
2023-04-30T13:18:43.774Z,48.13
2023-04-30T13:21:09.993Z,47.63
2023-04-30T13:23:44.930Z,46.34
2023-04-30T13:26:17.904Z,48.53
2023-04-30T13:28:44.090Z,49.44
2023-04-30T13:31:10.318Z,47.71
2023-04-30T13:33:36.556Z,48.50
2023-04-30T13:36:02.747Z,50.60
2023-04-30T13:38:28.926Z,48.83
2023-04-30T13:40:55.150Z,49.12
2023-04-30T13:43:21.321Z,48.84
2023-04-30T13:45:47.459Z,54.12
2023-04-30T13:48:13.616Z,49.65
2023-04-30T13:50:39.776Z,45.31
2023-04-30T13:53:05.997Z,47.17
2023-04-30T13:55:32.197Z,48.83
2023-04-30T13:57:58.414Z,45.74
2023-04-30T14:00:27.328Z,48.35
2023-04-30T14:02:53.569Z,47.50
2023-04-30T14:05:19.757Z,46.27
2023-04-30T14:07:45.943Z,50.08
2023-04-30T14:10:12.133Z,48.92
2023-04-30T14:12:38.270Z,46.63
2023-04-30T14:15:04.488Z,47.04
2023-04-30T14:17:30.673Z,46.71
2023-04-30T14:19:57.063Z,47.36
2023-04-30T14:22:23.596Z,46.43
2023-04-30T14:24:49.803Z,46.86
2023-04-30T14:27:15.967Z,47.11
2023-04-30T14:29:42.151Z,47.02
2023-04-30T14:32:08.368Z,46.20
2023-04-30T14:34:34.521Z,46.02
2023-04-30T14:37:00.668Z,45.48
2023-04-30T14:39:26.835Z,46.67
2023-04-30T14:41:53.579Z,45.10
2023-04-30T14:44:19.739Z,48.65
2023-04-30T14:46:45.920Z,46.78
2023-04-30T14:49:12.064Z,48.37
2023-04-30T14:51:38.341Z,48.30
2023-04-30T14:54:04.535Z,46.82
2023-04-30T14:56:30.695Z,43.07
2023-04-30T14:58:56.900Z,43.26
2023-04-30T15:01:23.106Z,42.81
2023-04-30T15:03:49.597Z,43.89
2023-04-30T15:06:15.942Z,42.73
2023-04-30T15:08:42.215Z,43.23
2023-04-30T15:11:08.393Z,43.97
2023-04-30T15:13:34.599Z,42.40
2023-04-30T15:16:00.875Z,41.79
2023-04-30T15:18:27.096Z,42.30
2023-04-30T15:20:53.330Z,41.00
2023-04-30T15:23:19.523Z,40.94
2023-04-30T15:25:45.720Z,40.93
2023-04-30T15:28:11.934Z,41.72
2023-04-30T15:30:38.131Z,41.33
2023-04-30T15:33:04.345Z,42.24
2023-04-30T15:35:30.614Z,40.89
2023-04-30T15:37:56.796Z,39.95
2023-04-30T15:40:23.062Z,39.70
2023-04-30T15:42:49.256Z,37.64
2023-04-30T15:45:15.444Z,37.60
2023-04-30T15:47:41.694Z,37.55
2023-04-30T15:50:07.947Z,39.60
2023-04-30T15:52:34.144Z,41.04
2023-04-30T15:55:00.304Z,41.59
2023-04-30T15:57:26.494Z,41.51
2023-04-30T15:59:52.914Z,41.77
2023-04-30T16:02:19.303Z,44.03
2023-04-30T16:04:45.489Z,43.38
2023-04-30T16:07:11.697Z,41.66
2023-04-30T16:09:37.851Z,42.62
2023-04-30T16:12:04.010Z,44.28
2023-04-30T16:14:31.202Z,44.57
2023-04-30T16:16:57.463Z,44.62
2023-04-30T16:19:23.781Z,45.88
2023-04-30T16:21:49.918Z,44.38
2023-04-30T16:24:16.086Z,46.08
2023-04-30T16:26:42.219Z,44.95
2023-04-30T16:29:08.341Z,45.25
2023-04-30T16:31:34.622Z,45.91
2023-04-30T16:34:00.773Z,46.30
2023-04-30T16:36:26.959Z,47.21
2023-04-30T16:38:53.122Z,46.91
2023-04-30T16:41:19.277Z,47.88
2023-04-30T16:43:45.637Z,48.25
2023-04-30T16:46:11.868Z,47.20
2023-04-30T16:48:40.407Z,47.50
2023-04-30T16:51:06.572Z,46.69
2023-04-30T16:53:32.798Z,46.04
2023-04-30T16:55:58.970Z,46.95
2023-04-30T16:58:25.132Z,48.47
2023-04-30T17:00:51.338Z,49.14
2023-04-30T17:03:17.654Z,49.93
2023-04-30T17:05:43.848Z,51.46
2023-04-30T17:08:10.021Z,50.69
2023-04-30T17:10:37.239Z,53.98
2023-04-30T17:13:03.390Z,51.11
2023-04-30T17:15:29.669Z,52.20
2023-04-30T17:17:55.963Z,52.13
2023-04-30T17:20:22.126Z,52.07
2023-04-30T17:22:48.280Z,53.05
2023-04-30T17:25:14.472Z,53.80
2023-04-30T17:27:40.631Z,52.74
2023-04-30T17:30:06.789Z,51.93
2023-04-30T17:32:32.982Z,52.00
2023-04-30T17:34:59.262Z,53.08
2023-04-30T17:37:28.753Z,52.56
2023-04-30T17:39:58.179Z,53.94
2023-04-30T17:42:24.477Z,55.00
2023-04-30T17:44:50.625Z,54.88
2023-04-30T17:47:16.797Z,56.47
2023-04-30T17:49:42.949Z,57.69
2023-04-30T17:52:09.077Z,55.77
2023-04-30T17:54:35.242Z,57.01
2023-04-30T17:57:01.386Z,57.19
2023-04-30T17:59:27.581Z,58.91
2023-04-30T18:01:53.790Z,60.64
2023-04-30T18:04:20.043Z,62.71
2023-04-30T18:06:46.401Z,65.45
2023-04-30T18:09:12.571Z,66.83
2023-04-30T18:11:38.750Z,65.70
2023-04-30T18:14:05.174Z,68.72
2023-04-30T18:16:31.433Z,75.11
2023-04-30T18:18:57.739Z,84.52
2023-04-30T18:21:23.906Z,97.97
2023-04-30T18:23:50.100Z,100.00
2023-04-30T18:26:21.933Z,100.00
2023-04-30T18:28:48.100Z,100.00
2023-04-30T18:31:14.265Z,100.00
2023-04-30T18:33:40.505Z,100.00
2023-04-30T18:36:06.684Z,100.00
2023-04-30T18:38:32.918Z,100.00
2023-04-30T18:40:59.122Z,100.00
2023-04-30T18:43:25.294Z,100.00
2023-04-30T18:45:51.537Z,100.00
2023-04-30T18:48:17.711Z,100.00
2023-04-30T18:50:43.918Z,100.00
2023-04-30T18:53:12.890Z,100.00
2023-04-30T18:55:39.051Z,100.00
2023-04-30T18:58:05.250Z,100.00
2023-04-30T19:00:31.475Z,100.00
2023-04-30T19:02:57.687Z,100.00
2023-04-30T19:05:23.949Z,100.00
2023-04-30T19:07:50.164Z,100.00
2023-04-30T19:10:16.354Z,100.00
2023-04-30T19:12:42.513Z,100.00
2023-04-30T19:15:08.681Z,100.00
2023-04-30T19:17:34.930Z,100.00
2023-04-30T19:20:01.119Z,100.00
2023-04-30T19:22:27.300Z,100.00
2023-04-30T19:24:53.443Z,100.00
2023-04-30T19:27:19.668Z,100.00
2023-04-30T19:29:45.807Z,100.00
2023-04-30T19:32:12.178Z,100.00
2023-04-30T19:34:38.466Z,100.00
2023-04-30T19:37:04.602Z,100.00
2023-04-30T19:39:30.787Z,100.00
2023-04-30T19:41:56.978Z,100.00
2023-04-30T19:44:23.186Z,100.00
2023-04-30T19:46:49.464Z,100.00
2023-04-30T19:49:15.995Z,100.00
2023-04-30T19:51:42.152Z,100.00
2023-04-30T19:54:08.378Z,100.00
2023-04-30T19:56:34.530Z,100.00
2023-04-30T19:59:00.738Z,100.00
2023-04-30T20:01:26.986Z,100.00
2023-04-30T20:03:58.783Z,100.00
2023-04-30T20:06:25.155Z,100.00
2023-04-30T20:08:51.374Z,100.00
2023-04-30T20:11:17.609Z,100.00
2023-04-30T20:13:43.805Z,100.00
2023-04-30T20:16:10.036Z,100.00
2023-04-30T20:18:36.248Z,100.00
2023-04-30T20:21:02.412Z,100.00
2023-04-30T20:23:28.586Z,100.00
2023-04-30T20:25:58.998Z,100.00
2023-04-30T20:28:25.209Z,100.00
2023-04-30T20:30:51.391Z,100.00
2023-04-30T20:33:17.575Z,100.00
2023-04-30T20:35:43.742Z,100.00
2023-04-30T20:38:09.986Z,100.00
2023-04-30T20:40:36.178Z,100.00
2023-04-30T20:43:02.457Z,100.00
2023-04-30T20:45:28.670Z,100.00
2023-04-30T20:47:54.927Z,100.00
2023-04-30T20:50:21.143Z,100.00
2023-04-30T20:52:47.291Z,100.00
2023-04-30T20:55:13.447Z,100.00
2023-04-30T20:57:45.650Z,100.00
2023-04-30T21:00:11.882Z,100.00
2023-04-30T21:02:38.227Z,100.00
2023-04-30T21:05:04.519Z,100.00
2023-04-30T21:07:30.747Z,100.00
2023-04-30T21:09:57.152Z,100.00
2023-04-30T21:12:23.516Z,100.00
2023-04-30T21:14:49.733Z,100.00
2023-04-30T21:17:15.897Z,100.00
2023-04-30T21:19:42.141Z,100.00
2023-04-30T21:22:09.798Z,100.00
2023-04-30T21:24:35.942Z,100.00
2023-04-30T21:27:05.081Z,100.00
2023-04-30T21:29:31.270Z,100.00
2023-04-30T21:31:57.444Z,100.00
2023-04-30T21:34:26.489Z,100.00
2023-04-30T21:36:52.612Z,100.00
2023-04-30T21:39:18.732Z,100.00
2023-04-30T21:41:44.870Z,100.00
2023-04-30T21:44:11.007Z,100.00
2023-04-30T21:46:37.209Z,100.00
2023-04-30T21:49:03.403Z,100.00
2023-04-30T21:51:29.537Z,100.00
2023-04-30T21:53:55.740Z,100.00
2023-04-30T21:56:21.975Z,100.00
2023-04-30T21:58:48.234Z,100.00
2023-04-30T22:01:16.393Z,100.00
2023-04-30T22:03:42.704Z,100.00
2023-04-30T22:06:08.941Z,100.00
2023-04-30T22:08:35.203Z,100.00
2023-04-30T22:11:01.387Z,100.00
2023-04-30T22:13:27.529Z,100.00
2023-04-30T22:15:53.746Z,100.00
2023-04-30T22:18:19.909Z,100.00
2023-04-30T22:20:46.111Z,100.00
2023-04-30T22:23:12.283Z,100.00
2023-04-30T22:25:38.452Z,100.00
2023-04-30T22:28:04.641Z,100.00
2023-04-30T22:30:30.794Z,100.00
2023-04-30T22:32:56.981Z,100.00
2023-04-30T22:35:27.910Z,100.00
2023-04-30T22:43:34.317Z,100.00
2023-04-30T22:46:00.459Z,100.00
2023-04-30T22:48:26.629Z,100.00
2023-04-30T22:50:52.780Z,100.00
2023-04-30T22:53:18.972Z,100.00
2023-04-30T22:55:45.129Z,100.00
2023-04-30T22:58:11.367Z,100.00
2023-04-30T23:00:37.593Z,100.00
2023-04-30T23:03:06.824Z,100.00
2023-04-30T23:05:33.078Z,100.00
2023-04-30T23:07:59.267Z,100.00
2023-04-30T23:10:25.442Z,100.00
2023-04-30T23:12:51.609Z,100.00
2023-04-30T23:15:17.752Z,100.00
2023-04-30T23:17:43.979Z,100.00
2023-04-30T23:20:10.178Z,100.00
2023-04-30T23:22:36.362Z,100.00
2023-04-30T23:25:03.485Z,100.00
2023-04-30T23:27:29.673Z,100.00
2023-04-30T23:29:56.199Z,100.00
2023-04-30T23:32:24.415Z,100.00
2023-04-30T23:34:50.748Z,100.00
2023-04-30T23:37:16.880Z,100.00
2023-04-30T23:39:43.068Z,100.00
2023-04-30T23:42:09.221Z,100.00
2023-04-30T23:44:35.415Z,100.00
2023-04-30T23:47:01.557Z,100.00
2023-04-30T23:49:27.754Z,100.00
2023-04-30T23:51:53.929Z,100.00
2023-04-30T23:54:20.085Z,100.00
2023-04-30T23:56:46.267Z,100.00
2023-04-30T23:59:12.410Z,100.00
